Time;durP1;ratioP1;P1;durP2;ratioP2;P2;SDS_P1;SDS_P2;PMS_P1;PMS_P2;Temp;Humidity;BMP_temperature;BMP_pressure;BME280_temperature;BME280_humidity;BME280_pressure;Samples;Min_cycle;Max_cycle;Signal;HPM_P1;HPM_P2
2022/09/14 00:00:47;;;;;;;7.82;2.95;;;;;;;;;;5072796;28;20229;-17
2022/09/14 00:03:34;;;;;;;16.33;2.50;;;;;;;;;;5073041;28;20322;-17
2022/09/14 00:06:05;;;;;;;8.32;2.25;;;;;;;;;;5073070;28;21031;-17
2022/09/14 00:08:33;;;;;;;8.50;2.03;;;;;;;;;;5072999;28;21107;-17
2022/09/14 00:11:04;;;;;;;5.75;2.25;;;;;;;;;;5071834;28;20237;-17
2022/09/14 00:13:32;;;;;;;13.50;2.30;;;;;;;;;;5072573;28;20233;-17
2022/09/14 00:16:02;;;;;;;7.05;2.05;;;;;;;;;;5072909;28;20217;-17
2022/09/14 00:18:29;;;;;;;8.05;2.40;;;;;;;;;;5072141;28;20214;-16
2022/09/14 00:20:59;;;;;;;5.35;2.03;;;;;;;;;;5071879;28;20237;-17
2022/09/14 00:23:26;;;;;;;5.60;1.95;;;;;;;;;;5072502;28;20272;-17
2022/09/14 00:25:53;;;;;;;6.65;2.10;;;;;;;;;;5072000;28;20241;-17
2022/09/14 00:28:22;;;;;;;6.90;2.22;;;;;;;;;;5072279;28;20982;-17
2022/09/14 00:30:49;;;;;;;4.57;1.88;;;;;;;;;;5072886;28;20712;-17
2022/09/14 00:33:17;;;;;;;5.43;2.05;;;;;;;;;;5071936;28;20241;-17
2022/09/14 00:35:44;;;;;;;7.18;2.10;;;;;;;;;;5072372;28;20221;-17
2022/09/14 00:38:11;;;;;;;7.10;1.90;;;;;;;;;;5072661;28;20988;-16
2022/09/14 00:40:39;;;;;;;8.65;2.28;;;;;;;;;;5072414;28;20234;-16
2022/09/14 00:43:08;;;;;;;4.82;2.05;;;;;;;;;;5070748;28;20340;-16
2022/09/14 00:45:37;;;;;;;6.82;2.05;;;;;;;;;;5072483;28;20222;-17
2022/09/14 00:48:04;;;;;;;9.45;1.70;;;;;;;;;;5072227;28;20241;-17
2022/09/14 00:50:32;;;;;;;6.05;2.20;;;;;;;;;;5072156;28;20220;-17
2022/09/14 00:52:59;;;;;;;3.90;1.60;;;;;;;;;;5072524;28;20214;-17
2022/09/14 00:55:26;;;;;;;4.97;2.15;;;;;;;;;;5071712;28;20785;-17
2022/09/14 00:57:54;;;;;;;9.38;2.03;;;;;;;;;;5072238;28;20975;-17
2022/09/14 01:00:22;;;;;;;8.00;2.15;;;;;;;;;;5072010;28;20237;-17
2022/09/14 01:02:50;;;;;;;4.45;1.90;;;;;;;;;;5072348;28;20372;-16
2022/09/14 01:05:18;;;;;;;4.90;1.90;;;;;;;;;;5071831;28;20645;-17
2022/09/14 01:07:52;;;;;;;5.85;2.10;;;;;;;;;;5070831;28;20243;-17
2022/09/14 01:10:23;;;;;;;4.82;1.70;;;;;;;;;;5072090;28;20287;-17
2022/09/14 01:12:52;;;;;;;3.97;1.80;;;;;;;;;;5072023;28;20268;-17
2022/09/14 01:15:20;;;;;;;5.35;2.10;;;;;;;;;;5071310;28;20306;-16
2022/09/14 01:17:51;;;;;;;8.32;2.10;;;;;;;;;;5071763;28;20221;-17
2022/09/14 01:20:25;;;;;;;5.93;1.90;;;;;;;;;;5071992;28;20328;-16
2022/09/14 01:22:57;;;;;;;4.28;1.50;;;;;;;;;;5070353;28;20241;-16
2022/09/14 01:25:44;;;;;;;8.48;2.28;;;;;;;;;;5071965;28;20217;-17
2022/09/14 01:28:13;;;;;;;4.72;1.90;;;;;;;;;;5071185;28;20237;-18
2022/09/14 01:30:41;;;;;;;7.20;2.00;;;;;;;;;;5071086;28;20701;-17
2022/09/14 01:33:09;;;;;;;5.90;1.73;;;;;;;;;;5070114;28;20311;-16
2022/09/14 01:35:37;;;;;;;3.50;1.73;;;;;;;;;;5062235;28;20233;-17
2022/09/14 01:38:05;;;;;;;4.88;1.70;;;;;;;;;;5070116;28;20229;-17
2022/09/14 01:40:33;;;;;;;4.72;1.65;;;;;;;;;;5070251;28;20680;-17
2022/09/14 01:43:01;;;;;;;3.67;1.33;;;;;;;;;;5070257;28;20581;-17
2022/09/14 01:45:30;;;;;;;6.90;1.80;;;;;;;;;;5071147;28;20299;-17
2022/09/14 01:47:58;;;;;;;5.43;1.83;;;;;;;;;;5071320;28;20315;-17
2022/09/14 01:50:25;;;;;;;3.72;1.65;;;;;;;;;;5071394;28;20225;-17
2022/09/14 01:52:54;;;;;;;3.05;1.55;;;;;;;;;;5071126;28;20300;-17
2022/09/14 01:55:22;;;;;;;4.05;1.60;;;;;;;;;;5070280;28;20340;-17
2022/09/14 01:57:50;;;;;;;4.20;1.60;;;;;;;;;;5070586;28;20283;-17
2022/09/14 02:00:18;;;;;;;3.22;1.63;;;;;;;;;;5071429;28;20291;-17
2022/09/14 02:02:48;;;;;;;6.80;1.92;;;;;;;;;;5070822;28;20225;-16
2022/09/14 02:05:17;;;;;;;2.75;1.38;;;;;;;;;;5070822;28;20705;-17
2022/09/14 02:07:44;;;;;;;11.05;2.08;;;;;;;;;;5071545;28;20716;-17
2022/09/14 02:10:12;;;;;;;5.07;1.67;;;;;;;;;;5070396;28;20712;-17
2022/09/14 02:12:39;;;;;;;3.05;1.33;;;;;;;;;;5070914;28;20225;-17
2022/09/14 02:15:07;;;;;;;4.85;1.88;;;;;;;;;;5070328;28;20287;-17
2022/09/14 02:17:35;;;;;;;5.30;1.63;;;;;;;;;;5070259;28;20279;-16
2022/09/14 02:20:04;;;;;;;6.28;1.73;;;;;;;;;;5071091;28;20218;-17
2022/09/14 02:22:31;;;;;;;4.47;1.70;;;;;;;;;;5130875;22;20239;-13
2022/09/14 02:24:59;;;;;;;3.50;1.90;;;;;;;;;;5125738;27;20274;-13
2022/09/14 02:27:26;;;;;;;6.07;1.48;;;;;;;;;;5111453;28;20327;-13
2022/09/14 02:29:53;;;;;;;4.10;1.70;;;;;;;;;;5111529;28;20591;-13
2022/09/14 02:32:22;;;;;;;3.72;1.70;;;;;;;;;;5112187;27;20231;-13
2022/09/14 02:34:52;;;;;;;3.30;1.27;;;;;;;;;;5119291;28;20320;-13
2022/09/14 02:37:23;;;;;;;3.88;1.63;;;;;;;;;;5117510;27;20752;-13
2022/09/14 02:39:53;;;;;;;5.68;1.75;;;;;;;;;;5118954;28;20224;-13
2022/09/14 02:42:23;;;;;;;3.63;1.42;;;;;;;;;;5118190;28;20795;-13
2022/09/14 02:44:53;;;;;;;5.03;1.55;;;;;;;;;;5118339;28;20281;-13
2022/09/14 02:47:22;;;;;;;4.95;1.38;;;;;;;;;;5118352;28;20235;-14
2022/09/14 02:49:50;;;;;;;3.42;1.63;;;;;;;;;;5117127;28;20232;-13
2022/09/14 02:52:18;;;;;;;2.88;1.67;;;;;;;;;;5118253;28;20220;-13
2022/09/14 02:54:48;;;;;;;4.50;2.13;;;;;;;;;;5118252;28;21049;-13
2022/09/14 02:57:15;;;;;;;4.15;1.48;;;;;;;;;;5117551;28;20231;-13
2022/09/14 02:59:42;;;;;;;4.05;1.65;;;;;;;;;;5117579;28;20227;-13
2022/09/14 03:02:10;;;;;;;2.88;1.30;;;;;;;;;;5100023;28;20232;-13
2022/09/14 03:04:37;;;;;;;3.53;1.23;;;;;;;;;;5108858;28;20781;-13
2022/09/14 03:07:05;;;;;;;4.00;1.48;;;;;;;;;;5118051;28;20235;-13
2022/09/14 03:09:32;;;;;;;4.60;1.20;;;;;;;;;;5117666;28;20224;-13
2022/09/14 03:12:01;;;;;;;5.25;1.50;;;;;;;;;;5116599;28;21001;-13
2022/09/14 03:14:29;;;;;;;6.25;1.23;;;;;;;;;;5117420;28;20235;-13
2022/09/14 03:16:56;;;;;;;3.70;1.55;;;;;;;;;;5118303;28;20320;-13
2022/09/14 03:19:23;;;;;;;5.05;1.60;;;;;;;;;;5117928;28;20220;-13
2022/09/14 03:21:50;;;;;;;3.33;1.20;;;;;;;;;;5116085;28;20772;-13
2022/09/14 03:24:18;;;;;;;3.15;1.27;;;;;;;;;;5117723;28;20223;-13
2022/09/14 03:26:46;;;;;;;3.67;1.63;;;;;;;;;;5118320;28;20269;-13
2022/09/14 03:29:14;;;;;;;3.25;1.65;;;;;;;;;;5115853;28;20236;-13
2022/09/14 03:31:42;;;;;;;3.08;1.58;;;;;;;;;;5110232;28;20277;-13
2022/09/14 03:34:09;;;;;;;4.45;1.42;;;;;;;;;;5113766;27;20285;-13
2022/09/14 03:36:37;;;;;;;5.72;1.73;;;;;;;;;;5117065;28;20220;-13
2022/09/14 03:39:04;;;;;;;3.47;1.30;;;;;;;;;;5117455;28;20691;-13
2022/09/14 03:41:32;;;;;;;3.45;1.75;;;;;;;;;;5117289;28;20321;-13
2022/09/14 03:43:59;;;;;;;6.30;1.77;;;;;;;;;;5115916;27;20228;-13
2022/09/14 03:46:28;;;;;;;3.30;1.30;;;;;;;;;;5102486;28;20229;-13
2022/09/14 03:48:55;;;;;;;7.07;1.40;;;;;;;;;;5110534;28;20236;-13
2022/09/14 03:51:22;;;;;;;6.45;1.60;;;;;;;;;;5114228;28;20691;-13
2022/09/14 03:53:50;;;;;;;5.70;1.70;;;;;;;;;;5114094;28;20228;-13
2022/09/14 03:56:18;;;;;;;4.80;1.60;;;;;;;;;;5112402;28;20231;-13
2022/09/14 03:58:46;;;;;;;2.90;1.38;;;;;;;;;;5114030;28;20266;-13
2022/09/14 04:01:14;;;;;;;5.60;1.67;;;;;;;;;;5103398;28;20233;-13
2022/09/14 04:03:43;;;;;;;5.28;1.65;;;;;;;;;;5103492;28;20248;-13
2022/09/14 04:06:10;;;;;;;3.22;1.50;;;;;;;;;;5113391;28;20267;-13
2022/09/14 04:08:38;;;;;;;5.82;1.88;;;;;;;;;;5113851;28;21203;-13
2022/09/14 04:11:08;;;;;;;5.28;1.30;;;;;;;;;;5107107;28;20221;-13
2022/09/14 04:13:36;;;;;;;3.83;1.40;;;;;;;;;;5093329;28;20696;-13
2022/09/14 04:16:03;;;;;;;4.45;1.40;;;;;;;;;;5101465;28;20228;-13
2022/09/14 04:18:31;;;;;;;4.88;1.40;;;;;;;;;;5109227;28;20225;-13
2022/09/14 04:21:00;;;;;;;5.05;1.50;;;;;;;;;;5092115;28;20248;-13
2022/09/14 04:23:34;;;;;;;2.97;1.33;;;;;;;;;;5092972;28;20271;-13
2022/09/14 04:26:21;;;;;;;6.80;1.88;;;;;;;;;;5092785;28;20264;-13
2022/09/14 04:28:49;;;;;;;3.47;1.17;;;;;;;;;;5107375;27;20236;-13
2022/09/14 04:31:16;;;;;;;4.55;1.48;;;;;;;;;;5103244;28;20665;-13
2022/09/14 04:33:43;;;;;;;3.95;1.75;;;;;;;;;;5093130;28;20236;-13
2022/09/14 04:36:12;;;;;;;4.43;1.58;;;;;;;;;;5112354;28;20228;-13
2022/09/14 04:38:40;;;;;;;5.03;1.48;;;;;;;;;;5112638;28;20233;-13
2022/09/14 04:41:08;;;;;;;4.95;1.73;;;;;;;;;;5113255;28;20687;-13
2022/09/14 04:43:35;;;;;;;5.15;1.67;;;;;;;;;;5112418;28;20227;-13
2022/09/14 04:46:02;;;;;;;5.05;1.60;;;;;;;;;;5104613;28;20306;-13
2022/09/14 04:48:32;;;;;;;4.95;1.55;;;;;;;;;;5092538;28;20240;-13
2022/09/14 04:51:00;;;;;;;2.58;1.40;;;;;;;;;;5107030;27;20232;-13
2022/09/14 04:53:29;;;;;;;2.85;1.23;;;;;;;;;;5095031;28;20708;-13
2022/09/14 04:55:59;;;;;;;3.05;1.40;;;;;;;;;;5091345;28;20225;-13
2022/09/14 04:58:27;;;;;;;3.03;1.30;;;;;;;;;;5092362;28;20217;-13
2022/09/14 05:00:55;;;;;;;3.67;1.70;;;;;;;;;;5098801;28;20232;-16
2022/09/14 05:03:22;;;;;;;4.25;1.75;;;;;;;;;;5113093;28;20756;-13
2022/09/14 05:05:50;;;;;;;4.25;1.60;;;;;;;;;;5112752;28;20220;-13
2022/09/14 05:08:17;;;;;;;4.47;1.45;;;;;;;;;;5101130;28;20240;-14
2022/09/14 05:10:46;;;;;;;4.22;1.30;;;;;;;;;;5092238;28;20290;-14
2022/09/14 05:13:15;;;;;;;5.82;1.80;;;;;;;;;;5109526;28;20224;-14
2022/09/14 05:15:42;;;;;;;3.63;1.30;;;;;;;;;;5106315;28;20230;-14
2022/09/14 05:18:09;;;;;;;2.85;1.10;;;;;;;;;;5092124;28;20221;-14
2022/09/14 05:20:37;;;;;;;6.30;1.50;;;;;;;;;;5091619;28;20302;-14
2022/09/14 05:23:05;;;;;;;3.65;1.10;;;;;;;;;;5094875;28;20229;-14
2022/09/14 05:25:32;;;;;;;1.80;1.08;;;;;;;;;;5103329;28;21067;-14
2022/09/14 05:28:01;;;;;;;4.07;1.42;;;;;;;;;;5111234;28;20231;-14
2022/09/14 05:30:28;;;;;;;2.97;1.20;;;;;;;;;;5101606;28;20312;-14
2022/09/14 05:32:56;;;;;;;2.20;1.20;;;;;;;;;;5103109;28;20229;-14
2022/09/14 05:35:24;;;;;;;2.65;1.00;;;;;;;;;;5102673;28;20232;-14
2022/09/14 05:37:51;;;;;;;4.57;1.60;;;;;;;;;;5102465;28;20232;-14
2022/09/14 05:40:19;;;;;;;4.93;1.30;;;;;;;;;;5101669;28;20290;-14
2022/09/14 05:42:46;;;;;;;5.00;1.20;;;;;;;;;;5103036;28;20351;-14
2022/09/14 05:45:15;;;;;;;5.47;1.60;;;;;;;;;;5105205;27;20227;-14
2022/09/14 05:47:42;;;;;;;2.30;1.05;;;;;;;;;;5102889;28;20237;-14
2022/09/14 05:50:09;;;;;;;3.50;1.38;;;;;;;;;;5102479;28;20237;-14
2022/09/14 05:52:37;;;;;;;3.80;1.42;;;;;;;;;;5102009;28;20236;-14
2022/09/14 05:55:04;;;;;;;5.85;1.48;;;;;;;;;;5101641;28;20376;-14
2022/09/14 05:57:32;;;;;;;3.60;1.33;;;;;;;;;;5110961;28;20887;-14
2022/09/14 05:59:59;;;;;;;7.10;1.50;;;;;;;;;;5092968;28;20228;-14
2022/09/14 06:02:28;;;;;;;3.65;1.42;;;;;;;;;;5111350;28;20228;-14
2022/09/14 06:04:55;;;;;;;3.95;1.50;;;;;;;;;;5111179;28;21181;-14
2022/09/14 06:07:22;;;;;;;2.90;1.50;;;;;;;;;;5104718;27;20232;-14
2022/09/14 06:09:50;;;;;;;5.18;1.60;;;;;;;;;;5111535;28;20237;-14
2022/09/14 06:12:17;;;;;;;3.70;1.58;;;;;;;;;;5111415;28;20224;-14
2022/09/14 06:14:44;;;;;;;3.65;1.30;;;;;;;;;;5111223;28;20232;-14
2022/09/14 06:17:12;;;;;;;2.53;1.30;;;;;;;;;;5093891;28;21070;-14
2022/09/14 06:19:41;;;;;;;6.05;1.67;;;;;;;;;;5111997;28;20554;-14
2022/09/14 06:22:08;;;;;;;8.02;1.48;;;;;;;;;;5110794;28;20289;-14
2022/09/14 06:24:36;;;;;;;5.22;1.52;;;;;;;;;;5111715;28;20224;-14
2022/09/14 06:27:03;;;;;;;6.60;1.42;;;;;;;;;;5111393;28;20703;-14
2022/09/14 06:29:30;;;;;;;6.75;1.88;;;;;;;;;;5104786;28;20251;-14
2022/09/14 06:31:58;;;;;;;6.88;1.65;;;;;;;;;;5106764;28;20940;-14
2022/09/14 06:34:25;;;;;;;7.40;1.67;;;;;;;;;;5111286;28;20228;-14
2022/09/14 06:36:54;;;;;;;8.38;1.48;;;;;;;;;;5103533;28;20228;-14
2022/09/14 06:39:21;;;;;;;8.07;1.58;;;;;;;;;;5096346;28;20228;-14
2022/09/14 06:41:50;;;;;;;10.65;2.30;;;;;;;;;;5111702;28;20679;-14
2022/09/14 06:44:18;;;;;;;6.47;1.60;;;;;;;;;;5111471;28;20282;-14
2022/09/14 06:46:45;;;;;;;4.15;1.60;;;;;;;;;;5110372;28;20236;-14
2022/09/14 06:49:16;;;;;;;9.88;1.35;;;;;;;;;;5111039;28;20243;-14
2022/09/14 06:51:44;;;;;;;4.47;1.58;;;;;;;;;;5104974;28;20275;-14
2022/09/14 06:54:14;;;;;;;6.10;1.38;;;;;;;;;;5100349;28;20233;-14
2022/09/14 06:56:41;;;;;;;4.93;1.20;;;;;;;;;;5101414;28;20228;-14
2022/09/14 06:59:09;;;;;;;7.07;1.50;;;;;;;;;;5102807;28;20229;-14
2022/09/14 07:01:37;;;;;;;7.68;1.40;;;;;;;;;;5099911;28;20310;-14
2022/09/14 07:04:04;;;;;;;3.20;1.33;;;;;;;;;;5091043;28;20232;-14
2022/09/14 07:06:32;;;;;;;5.22;1.45;;;;;;;;;;5090760;28;20332;-14
2022/09/14 07:09:02;;;;;;;4.60;1.40;;;;;;;;;;5090498;28;20224;-14
2022/09/14 07:11:31;;;;;;;3.72;1.30;;;;;;;;;;5092992;28;20229;-14
2022/09/14 07:13:58;;;;;;;11.93;1.45;;;;;;;;;;5100388;28;20287;-14
2022/09/14 07:16:26;;;;;;;6.93;1.48;;;;;;;;;;5101547;28;20232;-14
2022/09/14 07:18:53;;;;;;;7.93;1.35;;;;;;;;;;5110638;27;20228;-14
2022/09/14 07:21:21;;;;;;;8.25;1.50;;;;;;;;;;5112805;28;20243;-14
2022/09/14 07:23:48;;;;;;;15.60;1.92;;;;;;;;;;5118996;27;20287;-14
2022/09/14 07:26:16;;;;;;;13.15;1.58;;;;;;;;;;5094266;28;21091;-14
2022/09/14 07:28:45;;;;;;;13.75;1.73;;;;;;;;;;5093642;28;20642;-14
2022/09/14 07:31:15;;;;;;;14.52;1.90;;;;;;;;;;5102432;28;20285;-14
2022/09/14 07:33:43;;;;;;;7.32;1.65;;;;;;;;;;5113401;27;20236;-14
2022/09/14 07:36:11;;;;;;;5.25;1.58;;;;;;;;;;5114043;28;20844;-14
2022/09/14 07:38:38;;;;;;;14.90;1.73;;;;;;;;;;5113767;28;20224;-14
2022/09/14 07:41:21;;;;;;;28.92;1.65;;;;;;;;;;5113874;28;20673;-14
2022/09/14 07:43:50;;;;;;;8.82;1.50;;;;;;;;;;5113399;28;20224;-14
2022/09/14 07:46:17;;;;;;;7.95;2.10;;;;;;;;;;5113210;28;20220;-14
2022/09/14 07:48:45;;;;;;;8.48;1.70;;;;;;;;;;5113774;28;20224;-14
2022/09/14 07:51:13;;;;;;;9.52;1.83;;;;;;;;;;5113845;28;20997;-14
2022/09/14 07:53:42;;;;;;;11.38;1.90;;;;;;;;;;5113677;28;20232;-14
2022/09/14 07:56:09;;;;;;;14.45;1.75;;;;;;;;;;5112642;28;20228;-14
2022/09/14 07:58:37;;;;;;;13.10;1.42;;;;;;;;;;5113747;28;20224;-14
2022/09/14 08:01:06;;;;;;;6.47;1.50;;;;;;;;;;5113520;28;20297;-14
2022/09/14 08:03:35;;;;;;;10.32;2.03;;;;;;;;;;5113051;28;20764;-14
2022/09/14 08:06:04;;;;;;;8.40;1.73;;;;;;;;;;5113556;28;20231;-14
2022/09/14 08:08:32;;;;;;;18.25;1.90;;;;;;;;;;5101987;28;21599;-14
2022/09/14 08:11:03;;;;;;;8.77;2.00;;;;;;;;;;5098942;28;20235;-14
2022/09/14 08:13:30;;;;;;;16.38;2.90;;;;;;;;;;5107588;28;20756;-14
2022/09/14 08:15:59;;;;;;;10.05;2.10;;;;;;;;;;5099775;28;20281;-14
2022/09/14 08:18:27;;;;;;;10.30;2.38;;;;;;;;;;5110149;28;20232;-14
2022/09/14 08:20:55;;;;;;;13.15;2.47;;;;;;;;;;5102472;28;20240;-13
2022/09/14 08:23:22;;;;;;;10.75;2.33;;;;;;;;;;5111553;28;20232;-14
2022/09/14 08:25:49;;;;;;;13.65;2.40;;;;;;;;;;5103908;28;20241;-14
2022/09/14 08:28:17;;;;;;;11.68;1.90;;;;;;;;;;5091991;28;20294;-14
2022/09/14 08:30:44;;;;;;;12.27;1.92;;;;;;;;;;5111469;27;20283;-14
2022/09/14 08:33:11;;;;;;;12.18;2.58;;;;;;;;;;5099918;28;20228;-14
2022/09/14 08:35:43;;;;;;;7.82;1.77;;;;;;;;;;5102452;28;20227;-14
2022/09/14 08:38:24;;;;;;;18.70;2.45;;;;;;;;;;5099195;28;20624;-14
2022/09/14 08:40:51;;;;;;;11.48;2.08;;;;;;;;;;5106379;27;20332;-14
2022/09/14 08:43:19;;;;;;;9.05;2.13;;;;;;;;;;5099819;28;20232;-14
2022/09/14 08:45:46;;;;;;;12.27;1.95;;;;;;;;;;5103283;28;20236;-14
2022/09/14 08:48:16;;;;;;;10.55;2.13;;;;;;;;;;5104085;28;20317;-13
2022/09/14 08:50:44;;;;;;;12.88;2.03;;;;;;;;;;5110887;27;20722;-13
2022/09/14 08:53:11;;;;;;;11.27;2.17;;;;;;;;;;5098027;28;20232;-14
2022/09/14 08:55:41;;;;;;;10.27;2.00;;;;;;;;;;5110828;28;20937;-13
2022/09/14 08:58:13;;;;;;;5.72;1.65;;;;;;;;;;5111155;28;20771;-13
2022/09/14 09:00:41;;;;;;;18.17;2.10;;;;;;;;;;5095015;28;20285;-13
2022/09/14 09:03:23;;;;;;;5.65;1.70;;;;;;;;;;5103775;28;20228;-13
2022/09/14 09:05:53;;;;;;;8.57;1.85;;;;;;;;;;5104243;28;20305;-13
2022/09/14 09:08:22;;;;;;;9.52;2.00;;;;;;;;;;5109318;28;20236;-13
2022/09/14 09:10:50;;;;;;;9.75;1.70;;;;;;;;;;5100708;28;20240;-13
2022/09/14 09:13:19;;;;;;;9.45;1.92;;;;;;;;;;5101940;28;20235;-13
2022/09/14 09:15:47;;;;;;;10.38;1.95;;;;;;;;;;5102028;28;20273;-13
2022/09/14 09:18:16;;;;;;;16.98;2.20;;;;;;;;;;5101435;28;20242;-13
2022/09/14 09:20:44;;;;;;;12.95;1.77;;;;;;;;;;5097625;28;20224;-13
2022/09/14 09:23:14;;;;;;;11.60;2.20;;;;;;;;;;5101656;27;20232;-13
2022/09/14 09:25:45;;;;;;;11.20;2.20;;;;;;;;;;5101681;28;20232;-13
2022/09/14 09:28:13;;;;;;;14.52;2.22;;;;;;;;;;5107340;28;20232;-13
2022/09/14 09:30:40;;;;;;;8.82;1.67;;;;;;;;;;5099469;28;20719;-14
2022/09/14 09:33:08;;;;;;;5.80;1.40;;;;;;;;;;5100849;28;20773;-13
2022/09/14 09:35:36;;;;;;;6.72;1.48;;;;;;;;;;5102689;28;20246;-13
2022/09/14 09:38:05;;;;;;;9.30;1.90;;;;;;;;;;5096111;28;20781;-13
2022/09/14 09:40:34;;;;;;;5.15;1.40;;;;;;;;;;5107866;28;20309;-13
2022/09/14 09:43:05;;;;;;;7.60;1.83;;;;;;;;;;5098523;28;20237;-13
2022/09/14 09:45:45;;;;;;;29.17;2.40;;;;;;;;;;5101360;27;20313;-13
2022/09/14 09:48:13;;;;;;;16.30;2.53;;;;;;;;;;5095575;28;20314;-13
2022/09/14 09:50:46;;;;;;;23.65;2.17;;;;;;;;;;5101359;28;20224;-13
2022/09/14 09:53:15;;;;;;;8.60;1.98;;;;;;;;;;5103618;28;20759;-14
2022/09/14 09:55:46;;;;;;;12.30;2.20;;;;;;;;;;5098995;28;20277;-14
2022/09/14 09:58:23;;;;;;;10.48;1.95;;;;;;;;;;5100816;28;20232;-14
2022/09/14 10:00:56;;;;;;;9.02;2.00;;;;;;;;;;5098859;28;20235;-14
2022/09/14 10:03:28;;;;;;;11.60;1.52;;;;;;;;;;5101974;28;20726;-14
2022/09/14 10:06:00;;;;;;;6.28;1.50;;;;;;;;;;5104634;28;20281;-14
2022/09/14 10:08:33;;;;;;;7.28;1.73;;;;;;;;;;5106944;27;20291;-14
2022/09/14 10:11:02;;;;;;;11.68;1.65;;;;;;;;;;5098893;28;20281;-14
2022/09/14 10:13:30;;;;;;;8.68;1.40;;;;;;;;;;5100966;28;20232;-14
2022/09/14 10:16:07;;;;;;;7.55;1.35;;;;;;;;;;5105391;28;21127;-14
2022/09/14 10:18:35;;;;;;;6.97;1.30;;;;;;;;;;5100064;28;20315;-14
2022/09/14 10:21:07;;;;;;;10.27;1.30;;;;;;;;;;5100407;28;20275;-14
2022/09/14 10:23:35;;;;;;;8.27;1.52;;;;;;;;;;5094170;28;21057;-14
2022/09/14 10:26:27;;;;;;;8.30;1.83;;;;;;;;;;5099872;28;20224;-14
2022/09/14 10:29:05;;;;;;;7.93;1.60;;;;;;;;;;5091853;28;21103;-14
2022/09/14 10:31:32;;;;;;;12.63;1.75;;;;;;;;;;5092458;28;20240;-14
2022/09/14 10:34:00;;;;;;;17.30;2.00;;;;;;;;;;5093084;28;20973;-14
2022/09/14 10:36:29;;;;;;;9.35;1.88;;;;;;;;;;5102966;28;20281;-15
2022/09/14 10:38:57;;;;;;;12.73;1.98;;;;;;;;;;5109412;28;20273;-14
2022/09/14 10:41:26;;;;;;;12.38;2.47;;;;;;;;;;5102886;28;20926;-14
2022/09/14 10:44:13;;;;;;;15.05;3.28;;;;;;;;;;5110098;28;20236;-14
2022/09/14 10:46:42;;;;;;;13.55;3.25;;;;;;;;;;5101625;28;20232;-14
2022/09/14 10:49:14;;;;;;;9.93;2.70;;;;;;;;;;5107429;28;20227;-14
2022/09/14 10:51:50;;;;;;;21.02;3.10;;;;;;;;;;5093153;28;20239;-14
2022/09/14 10:54:25;;;;;;;14.35;5.20;;;;;;;;;;5091696;28;20232;-14
2022/09/14 10:56:56;;;;;;;11.63;5.80;;;;;;;;;;5112356;28;20338;-14
2022/09/14 10:59:26;;;;;;;22.15;7.30;;;;;;;;;;5113116;28;20232;-14
2022/09/14 11:02:09;;;;;;;11.90;6.47;;;;;;;;;;5113762;28;20236;-14
2022/09/14 11:04:46;;;;;;;11.88;6.53;;;;;;;;;;5105698;28;20877;-14
2022/09/14 11:07:15;;;;;;;15.85;5.90;;;;;;;;;;5111447;28;20277;-14
2022/09/14 11:09:43;;;;;;;16.38;5.45;;;;;;;;;;5095186;28;20294;-14
2022/09/14 11:12:12;;;;;;;10.90;5.20;;;;;;;;;;5092749;28;20304;-14
2022/09/14 11:14:45;;;;;;;9.80;4.63;;;;;;;;;;5102329;27;20259;-14
2022/09/14 11:17:16;;;;;;;7.30;4.22;;;;;;;;;;5094666;28;20236;-14
2022/09/14 11:19:45;;;;;;;9.07;4.00;;;;;;;;;;5093717;28;20280;-14
2022/09/14 11:22:14;;;;;;;9.85;3.92;;;;;;;;;;5111262;28;20244;-14
2022/09/14 11:24:42;;;;;;;14.45;3.63;;;;;;;;;;5113149;28;20266;-14
2022/09/14 11:27:10;;;;;;;9.45;3.38;;;;;;;;;;5104129;28;20979;-14
2022/09/14 11:29:39;;;;;;;12.75;3.10;;;;;;;;;;5106314;28;20255;-14
2022/09/14 11:32:07;;;;;;;9.25;3.30;;;;;;;;;;5105296;28;20247;-14
2022/09/14 11:34:53;;;;;;;10.45;2.85;;;;;;;;;;5096171;28;20312;-14
2022/09/14 11:37:21;;;;;;;12.45;2.55;;;;;;;;;;5111118;28;20385;-14
2022/09/14 11:39:49;;;;;;;9.13;2.83;;;;;;;;;;5093367;28;20232;-14
2022/09/14 11:42:18;;;;;;;9.65;2.90;;;;;;;;;;5092889;28;20223;-14
2022/09/14 11:44:45;;;;;;;12.25;2.55;;;;;;;;;;5094031;28;20237;-14
2022/09/14 11:47:13;;;;;;;15.43;2.83;;;;;;;;;;5105947;28;21057;-14
2022/09/14 11:49:45;;;;;;;21.38;2.42;;;;;;;;;;5105737;28;20386;-14
2022/09/14 11:52:14;;;;;;;12.82;2.40;;;;;;;;;;5100274;28;20236;-14
2022/09/14 11:54:41;;;;;;;9.70;2.35;;;;;;;;;;5110728;28;20240;-14
2022/09/14 11:57:14;;;;;;;16.88;2.58;;;;;;;;;;5098355;27;20232;-14
2022/09/14 11:59:51;;;;;;;12.77;2.42;;;;;;;;;;5111071;28;20313;-14
2022/09/14 12:02:47;;;;;;;6.15;2.08;;;;;;;;;;5092713;28;21113;-14
2022/09/14 12:05:25;;;;;;;15.20;2.50;;;;;;;;;;5044892;28;20257;-14
2022/09/14 12:08:01;;;;;;;14.90;2.33;;;;;;;;;;5099334;28;20767;-14
2022/09/14 12:10:28;;;;;;;9.93;2.20;;;;;;;;;;5113262;28;20224;-13
2022/09/14 12:12:56;;;;;;;8.80;2.30;;;;;;;;;;5113015;28;20298;-14
2022/09/14 12:15:33;;;;;;;8.45;1.50;;;;;;;;;;5113239;28;20289;-14
2022/09/14 12:18:15;;;;;;;15.93;2.25;;;;;;;;;;5112723;28;20617;-14
2022/09/14 12:20:43;;;;;;;12.88;2.10;;;;;;;;;;5091330;28;21554;-14
2022/09/14 12:23:17;;;;;;;13.25;1.98;;;;;;;;;;5098206;28;20235;-14
2022/09/14 12:25:54;;;;;;;8.27;1.75;;;;;;;;;;5113027;28;20232;-14
2022/09/14 12:28:25;;;;;;;7.57;1.42;;;;;;;;;;5111621;28;20227;-14
2022/09/14 12:31:06;;;;;;;13.23;2.28;;;;;;;;;;5110060;27;20286;-14
2022/09/14 12:33:51;;;;;;;10.88;2.03;;;;;;;;;;5112157;28;20244;-14
2022/09/14 12:36:34;;;;;;;11.55;1.75;;;;;;;;;;5113211;28;20228;-14
2022/09/14 12:39:20;;;;;;;10.10;1.60;;;;;;;;;;5097182;28;20224;-14
2022/09/14 12:41:59;;;;;;;10.05;2.13;;;;;;;;;;5106256;28;20319;-14
2022/09/14 12:44:33;;;;;;;10.27;2.17;;;;;;;;;;5097523;28;20229;-14
2022/09/14 12:47:16;;;;;;;11.02;1.20;;;;;;;;;;5106169;28;20278;-14
2022/09/14 12:49:43;;;;;;;6.82;1.67;;;;;;;;;;5110845;28;20224;-14
2022/09/14 12:52:14;;;;;;;6.60;1.98;;;;;;;;;;5109336;27;20278;-14
2022/09/14 12:54:46;;;;;;;9.98;1.88;;;;;;;;;;5102927;28;20239;-14
2022/09/14 12:57:21;;;;;;;7.35;1.83;;;;;;;;;;5090631;28;20228;-14
2022/09/14 12:59:51;;;;;;;7.55;1.50;;;;;;;;;;5092001;28;20217;-14
2022/09/14 13:02:48;;;;;;;11.27;2.13;;;;;;;;;;5109572;28;20688;-14
2022/09/14 13:05:17;;;;;;;11.70;1.58;;;;;;;;;;4994987;28;20228;-14
2022/09/14 13:07:44;;;;;;;7.85;1.92;;;;;;;;;;5068668;28;20699;-14
2022/09/14 13:10:17;;;;;;;14.40;2.08;;;;;;;;;;5091562;28;20225;-14
2022/09/14 13:12:45;;;;;;;9.93;1.77;;;;;;;;;;5090828;28;20314;-14
2022/09/14 13:15:16;;;;;;;15.70;1.67;;;;;;;;;;5108883;28;20281;-14
2022/09/14 13:17:55;;;;;;;18.08;2.20;;;;;;;;;;5099743;28;20228;-14
2022/09/14 13:20:22;;;;;;;12.02;1.77;;;;;;;;;;5093952;28;20231;-14
2022/09/14 13:22:49;;;;;;;12.63;1.73;;;;;;;;;;5110713;28;20708;-14
2022/09/14 13:25:26;;;;;;;19.83;2.03;;;;;;;;;;5110561;28;20409;-14
2022/09/14 13:27:54;;;;;;;19.50;2.65;;;;;;;;;;5089755;28;20238;-14
2022/09/14 13:30:22;;;;;;;18.02;2.45;;;;;;;;;;5093680;28;20984;-14
2022/09/14 13:32:49;;;;;;;10.70;1.35;;;;;;;;;;5096042;28;20806;-14
2022/09/14 13:35:17;;;;;;;16.85;2.17;;;;;;;;;;5105542;28;20722;-14
2022/09/14 13:37:44;;;;;;;16.33;2.40;;;;;;;;;;5107616;28;20228;-14
2022/09/14 13:40:15;;;;;;;12.80;1.85;;;;;;;;;;5111923;28;20281;-14
2022/09/14 13:42:44;;;;;;;13.68;1.63;;;;;;;;;;5103941;28;20233;-14
2022/09/14 13:45:12;;;;;;;16.48;1.50;;;;;;;;;;5092918;28;20334;-14
2022/09/14 13:47:39;;;;;;;12.65;1.83;;;;;;;;;;5111816;28;20227;-14
2022/09/14 13:50:07;;;;;;;10.13;1.92;;;;;;;;;;5112248;28;20224;-14
2022/09/14 13:52:35;;;;;;;9.90;1.73;;;;;;;;;;5112366;28;20281;-14
2022/09/14 13:55:24;;;;;;;9.32;1.60;;;;;;;;;;5111642;28;20408;-14
2022/09/14 13:58:05;;;;;;;12.65;2.45;;;;;;;;;;5111050;28;20992;-14
2022/09/14 14:00:32;;;;;;;12.93;1.73;;;;;;;;;;5107100;28;20229;-14
2022/09/14 14:03:00;;;;;;;11.25;2.15;;;;;;;;;;5091305;28;20244;-14
2022/09/14 14:05:28;;;;;;;14.02;2.00;;;;;;;;;;5091836;28;20286;-14
2022/09/14 14:07:56;;;;;;;12.73;1.80;;;;;;;;;;5092324;28;20274;-14
2022/09/14 14:10:27;;;;;;;11.25;1.65;;;;;;;;;;5109637;28;20232;-14
2022/09/14 14:12:55;;;;;;;8.02;1.58;;;;;;;;;;5111953;28;20284;-14
2022/09/14 14:15:34;;;;;;;8.50;1.52;;;;;;;;;;5109245;28;20290;-14
2022/09/14 14:18:02;;;;;;;12.98;2.13;;;;;;;;;;5096572;28;20281;-14
2022/09/14 14:20:31;;;;;;;18.52;2.15;;;;;;;;;;5099370;28;20229;-14
2022/09/14 14:22:59;;;;;;;27.27;2.03;;;;;;;;;;5101222;28;20897;-14
2022/09/14 14:25:31;;;;;;;19.88;2.47;;;;;;;;;;5104568;28;20224;-14
2022/09/14 14:28:00;;;;;;;15.57;2.05;;;;;;;;;;5110058;27;20274;-14
2022/09/14 14:30:28;;;;;;;16.23;1.67;;;;;;;;;;5109237;27;21093;-14
2022/09/14 14:32:58;;;;;;;23.02;2.20;;;;;;;;;;5110637;28;20702;-14
2022/09/14 14:35:26;;;;;;;17.35;1.90;;;;;;;;;;5108467;28;20295;-14
2022/09/14 14:37:53;;;;;;;9.98;2.05;;;;;;;;;;5090353;28;21075;-14
2022/09/14 14:40:21;;;;;;;15.77;2.20;;;;;;;;;;5090794;28;20271;-14
2022/09/14 14:42:48;;;;;;;17.13;2.22;;;;;;;;;;5103357;28;20232;-14
2022/09/14 14:45:17;;;;;;;12.80;2.03;;;;;;;;;;5106813;28;20233;-14
2022/09/14 14:47:45;;;;;;;14.82;2.40;;;;;;;;;;5110795;28;20212;-14
2022/09/14 14:50:17;;;;;;;10.18;1.60;;;;;;;;;;5110571;28;20232;-14
2022/09/14 14:52:44;;;;;;;18.85;1.60;;;;;;;;;;5109972;28;20289;-14